createdAt,value
2017-09-24T00:00:22.540Z,77.97
2017-09-24T00:02:50.006Z,77.94
2017-09-24T00:05:17.767Z,77.98
2017-09-24T00:07:45.254Z,78.04
2017-09-24T00:10:12.719Z,78.13
2017-09-24T00:12:40.197Z,78.19
2017-09-24T00:15:07.655Z,78.29
2017-09-24T00:17:35.126Z,78.46
2017-09-24T00:20:02.619Z,78.64
2017-09-24T00:22:30.107Z,78.87
2017-09-24T00:24:57.576Z,78.90
2017-09-24T00:27:25.050Z,79.04
2017-09-24T00:29:52.548Z,78.84
2017-09-24T00:32:20.311Z,79.03
2017-09-24T00:34:47.776Z,79.17
2017-09-24T00:37:15.239Z,79.28
2017-09-24T00:39:42.732Z,79.34
2017-09-24T00:42:10.195Z,79.35
2017-09-24T00:44:37.670Z,79.35
2017-09-24T00:47:05.132Z,79.38
2017-09-24T00:49:32.867Z,79.36
2017-09-24T00:52:00.332Z,79.43
2017-09-24T00:54:27.787Z,79.49
2017-09-24T00:56:55.251Z,79.51
2017-09-24T00:59:22.727Z,79.54
2017-09-24T01:01:50.511Z,79.56
2017-09-24T01:04:17.986Z,79.46
2017-09-24T01:06:45.443Z,79.42
2017-09-24T01:09:12.920Z,79.51
2017-09-24T01:11:40.391Z,79.55
2017-09-24T01:14:07.939Z,79.65
2017-09-24T01:16:35.407Z,79.62
2017-09-24T01:19:02.879Z,79.56
2017-09-24T01:21:30.345Z,79.55
2017-09-24T01:23:58.130Z,79.60
2017-09-24T01:26:25.603Z,79.62
2017-09-24T01:28:53.071Z,79.74
2017-09-24T01:31:21.390Z,79.76
2017-09-24T01:33:48.860Z,79.89
2017-09-24T01:36:16.342Z,80.03
2017-09-24T01:38:43.821Z,80.10
2017-09-24T01:41:11.293Z,80.24
2017-09-24T01:43:38.770Z,80.36
2017-09-24T01:46:06.578Z,80.37
2017-09-24T01:48:34.047Z,80.40
2017-09-24T01:51:01.521Z,80.48
2017-09-24T01:53:29.001Z,80.52
2017-09-24T01:55:56.464Z,80.65
2017-09-24T01:58:24.281Z,80.64
2017-09-24T02:00:51.743Z,80.66
2017-09-24T02:03:19.216Z,80.77
2017-09-24T02:05:46.690Z,80.83
2017-09-24T02:08:14.177Z,80.77
2017-09-24T02:10:41.967Z,80.74
2017-09-24T02:13:09.454Z,80.73
2017-09-24T02:15:36.930Z,80.80
2017-09-24T02:18:04.398Z,80.75
2017-09-24T02:20:31.868Z,80.84
2017-09-24T02:22:59.342Z,80.86
2017-09-24T02:25:26.796Z,80.87
2017-09-24T02:27:54.267Z,80.91
2017-09-24T02:30:21.725Z,80.93
2017-09-24T02:32:49.200Z,80.95
2017-09-24T02:35:16.674Z,81.05
2017-09-24T02:37:44.149Z,81.16
2017-09-24T02:40:11.615Z,81.22
2017-09-24T02:42:39.094Z,81.28
2017-09-24T02:45:06.604Z,81.37
2017-09-24T02:47:34.093Z,81.40
2017-09-24T02:50:01.555Z,81.29
2017-09-24T02:52:29.328Z,81.31
2017-09-24T02:54:56.793Z,81.40
2017-09-24T02:57:24.247Z,81.29
2017-09-24T02:59:51.760Z,81.27
2017-09-24T03:02:19.220Z,81.39
2017-09-24T03:04:46.708Z,81.50
2017-09-24T03:07:14.175Z,81.53
2017-09-24T03:09:41.958Z,81.57
2017-09-24T03:12:09.417Z,81.81
2017-09-24T03:14:36.896Z,81.70
2017-09-24T03:17:04.367Z,81.65
2017-09-24T03:19:31.840Z,81.60
2017-09-24T03:21:59.667Z,81.51
2017-09-24T03:24:27.143Z,81.61
2017-09-24T03:26:54.626Z,81.55
2017-09-24T03:29:22.107Z,81.51
2017-09-24T03:31:49.597Z,81.47
2017-09-24T03:34:17.067Z,81.42
2017-09-24T03:36:44.532Z,81.45
2017-09-24T03:39:12.047Z,81.59
2017-09-24T03:41:39.524Z,81.52
2017-09-24T03:44:07.004Z,81.48
2017-09-24T03:46:34.478Z,81.35
2017-09-24T03:49:02.304Z,81.26
2017-09-24T03:51:29.777Z,81.26
2017-09-24T03:53:57.246Z,81.27
2017-09-24T03:56:24.730Z,81.28
2017-09-24T03:58:52.205Z,81.32
2017-09-24T04:01:19.685Z,81.30
2017-09-24T04:03:47.152Z,81.34
2017-09-24T04:06:15.012Z,81.57
2017-09-24T04:08:42.474Z,81.45
2017-09-24T04:11:09.929Z,81.32
2017-09-24T04:13:37.421Z,81.30
2017-09-24T04:16:04.876Z,81.32
2017-09-24T04:18:32.357Z,81.44
2017-09-24T04:20:59.872Z,81.52
2017-09-24T04:23:27.345Z,81.82
2017-09-24T04:25:54.808Z,81.63
2017-09-24T04:28:22.292Z,81.42
2017-09-24T04:30:49.768Z,81.72
2017-09-24T04:33:17.540Z,81.51
2017-09-24T04:35:44.998Z,81.73
2017-09-24T04:38:12.464Z,81.75
2017-09-24T04:40:39.956Z,81.73
2017-09-24T04:43:07.430Z,81.74
2017-09-24T04:45:34.908Z,81.79
2017-09-24T04:48:02.380Z,81.85
2017-09-24T04:50:29.858Z,81.95
2017-09-24T04:52:57.352Z,82.09
2017-09-24T04:55:25.183Z,82.07
2017-09-24T04:57:52.654Z,82.02
2017-09-24T05:00:20.120Z,81.88
2017-09-24T05:02:47.592Z,81.82
2017-09-24T05:05:15.061Z,81.91
2017-09-24T05:07:42.865Z,81.96
2017-09-24T05:10:10.331Z,82.01
2017-09-24T05:12:37.808Z,82.06
2017-09-24T05:15:05.295Z,82.06
2017-09-24T05:17:32.759Z,82.07
2017-09-24T05:20:00.240Z,82.00
2017-09-24T05:22:27.759Z,82.02
2017-09-24T05:24:55.238Z,82.12
2017-09-24T05:27:22.715Z,82.16
2017-09-24T05:29:50.499Z,82.24
2017-09-24T05:32:17.968Z,82.49
2017-09-24T05:34:45.438Z,82.48
2017-09-24T05:37:12.933Z,82.29
2017-09-24T05:39:40.414Z,82.62
2017-09-24T05:42:08.172Z,83.20
2017-09-24T05:44:35.637Z,83.61
2017-09-24T05:47:03.105Z,83.57
2017-09-24T05:49:30.583Z,84.10
2017-09-24T05:51:58.549Z,84.09
2017-09-24T05:54:26.394Z,83.89
2017-09-24T05:56:53.855Z,83.79
2017-09-24T05:59:21.339Z,83.69
2017-09-24T06:01:48.847Z,83.62
2017-09-24T06:04:16.330Z,83.54
2017-09-24T06:06:44.236Z,83.53
2017-09-24T06:09:11.711Z,83.42
2017-09-24T06:11:40.027Z,83.42
2017-09-24T06:14:07.512Z,83.47
2017-09-24T06:16:34.969Z,83.59
2017-09-24T06:19:02.816Z,83.52
2017-09-24T06:21:30.292Z,83.38
2017-09-24T06:23:57.770Z,83.16
2017-09-24T06:26:25.251Z,83.10
2017-09-24T06:28:52.731Z,83.17
2017-09-24T06:31:20.249Z,83.21
2017-09-24T06:33:47.774Z,83.26
2017-09-24T06:36:15.264Z,83.37
2017-09-24T06:38:42.740Z,83.42
2017-09-24T06:41:10.540Z,83.44
2017-09-24T06:43:38.022Z,83.54
2017-09-24T06:46:05.493Z,83.67
2017-09-24T06:48:32.962Z,83.47
2017-09-24T06:51:00.442Z,83.44
2017-09-24T06:53:28.253Z,83.27
2017-09-24T06:55:55.748Z,83.22
2017-09-24T06:58:23.225Z,83.12
2017-09-24T07:00:50.708Z,82.92
2017-09-24T07:03:18.196Z,82.92
2017-09-24T07:05:45.684Z,82.70
2017-09-24T07:08:13.139Z,82.56
2017-09-24T07:10:41.258Z,82.43
2017-09-24T07:13:08.728Z,82.16
2017-09-24T07:15:36.218Z,82.04
2017-09-24T07:18:03.690Z,81.99
2017-09-24T07:20:31.164Z,82.06
2017-09-24T07:22:58.643Z,82.02
2017-09-24T07:25:26.328Z,82.05
2017-09-24T07:27:53.804Z,82.07
2017-09-24T07:30:21.276Z,81.99
2017-09-24T07:32:48.782Z,81.82
2017-09-24T07:35:16.299Z,81.35
2017-09-24T07:37:44.426Z,81.02
2017-09-24T07:40:11.890Z,80.60
2017-09-24T07:42:39.351Z,80.47
2017-09-24T07:45:06.839Z,80.56
2017-09-24T07:47:34.310Z,80.59
2017-09-24T07:50:01.804Z,80.35
2017-09-24T07:52:29.281Z,79.96
2017-09-24T07:54:56.767Z,79.59
2017-09-24T07:57:24.255Z,79.39
2017-09-24T07:59:52.045Z,79.64
2017-09-24T08:02:19.521Z,78.94
2017-09-24T08:04:47.303Z,78.99
2017-09-24T08:07:14.776Z,78.78
2017-09-24T08:09:42.252Z,78.48
2017-09-24T08:12:09.730Z,78.57
2017-09-24T08:14:37.208Z,78.18
2017-09-24T08:17:05.051Z,77.86
2017-09-24T08:19:32.520Z,77.25
2017-09-24T08:21:59.992Z,76.81
2017-09-24T08:24:27.483Z,76.10
2017-09-24T08:26:54.983Z,76.14
2017-09-24T08:29:22.760Z,76.03
2017-09-24T08:31:50.227Z,75.84
2017-09-24T08:34:17.694Z,75.59
2017-09-24T08:36:45.181Z,74.97
2017-09-24T08:39:12.645Z,74.54
2017-09-24T08:41:40.112Z,74.11
2017-09-24T08:44:07.602Z,73.76
2017-09-24T08:46:35.065Z,73.43
2017-09-24T08:49:02.550Z,73.00
2017-09-24T08:51:30.024Z,72.42
2017-09-24T08:53:57.491Z,72.02
2017-09-24T08:56:24.962Z,71.50
2017-09-24T08:58:53.361Z,71.30
2017-09-24T09:01:20.826Z,71.19
2017-09-24T09:03:48.286Z,71.47
2017-09-24T09:06:15.752Z,71.60
2017-09-24T09:08:43.225Z,71.33
2017-09-24T09:11:10.712Z,70.61
2017-09-24T09:13:38.195Z,70.03
2017-09-24T09:16:05.993Z,69.02
2017-09-24T09:18:33.453Z,68.53
2017-09-24T09:21:00.962Z,68.53
2017-09-24T09:23:28.440Z,68.17
2017-09-24T09:25:55.908Z,68.17
2017-09-24T09:28:23.382Z,68.14
2017-09-24T09:30:50.872Z,67.35
2017-09-24T09:33:21.447Z,67.14
2017-09-24T09:35:48.917Z,66.68
2017-09-24T09:38:16.395Z,65.79
2017-09-24T09:40:43.867Z,65.88
2017-09-24T09:43:11.358Z,65.58
2017-09-24T09:45:50.623Z,65.50
2017-09-24T09:48:18.112Z,65.42
2017-09-24T09:50:45.603Z,65.71
2017-09-24T09:53:13.157Z,65.43
2017-09-24T09:55:40.653Z,65.28
2017-09-24T09:58:08.127Z,65.23
2017-09-24T10:00:35.878Z,65.00
2017-09-24T10:03:03.342Z,64.71
2017-09-24T10:05:30.811Z,64.70
2017-09-24T10:08:10.138Z,64.43
2017-09-24T10:10:37.608Z,64.25
2017-09-24T10:13:05.082Z,64.13
2017-09-24T10:15:32.569Z,63.62
2017-09-24T10:18:00.355Z,62.96
2017-09-24T10:20:27.844Z,61.50
2017-09-24T10:22:55.313Z,59.77
2017-09-24T10:25:22.790Z,59.03
2017-09-24T10:27:51.484Z,58.19
2017-09-24T10:30:30.911Z,55.96
2017-09-24T10:32:58.402Z,55.38
2017-09-24T10:35:26.183Z,55.68
2017-09-24T10:37:53.667Z,56.15
2017-09-24T10:40:21.830Z,56.81
2017-09-24T10:42:49.308Z,56.82
2017-09-24T10:45:17.820Z,57.10
2017-09-24T10:47:45.365Z,57.54
2017-09-24T10:50:12.846Z,57.38
2017-09-24T10:52:40.309Z,57.61
2017-09-24T10:55:07.790Z,58.04
2017-09-24T10:57:35.260Z,58.48
2017-09-24T11:00:03.103Z,59.42
2017-09-24T11:02:30.574Z,60.06
2017-09-24T11:04:58.057Z,59.90
2017-09-24T11:07:25.557Z,59.97
2017-09-24T11:09:53.052Z,59.91
2017-09-24T11:12:20.547Z,59.81
2017-09-24T11:14:48.020Z,60.02
2017-09-24T11:17:15.812Z,60.12
2017-09-24T11:19:43.282Z,60.18
2017-09-24T11:22:10.780Z,59.68
2017-09-24T11:24:38.270Z,59.73
2017-09-24T11:27:05.734Z,60.09
2017-09-24T11:29:33.216Z,60.28
2017-09-24T11:32:00.716Z,60.32
2017-09-24T11:34:28.190Z,60.41
2017-09-24T11:36:55.645Z,60.69
2017-09-24T11:39:23.493Z,61.17
2017-09-24T11:41:50.970Z,61.41
2017-09-24T11:44:18.457Z,61.47
2017-09-24T11:46:45.953Z,61.50
2017-09-24T11:49:13.426Z,61.40
2017-09-24T11:51:40.941Z,61.07
2017-09-24T11:54:08.411Z,60.94
2017-09-24T11:56:36.171Z,61.00
2017-09-24T11:59:03.919Z,61.52
2017-09-24T12:01:31.390Z,61.85
2017-09-24T12:03:58.891Z,61.32
2017-09-24T12:06:26.386Z,60.81
2017-09-24T12:08:53.898Z,60.56
2017-09-24T12:11:21.654Z,60.52
2017-09-24T12:13:49.503Z,60.79
2017-09-24T12:16:16.972Z,60.07
2017-09-24T12:18:45.281Z,59.56
2017-09-24T12:21:13.181Z,59.56
2017-09-24T12:23:40.663Z,59.59
2017-09-24T12:26:08.171Z,59.64
2017-09-24T12:28:35.629Z,59.54
2017-09-24T12:31:08.579Z,59.54
2017-09-24T12:33:36.060Z,59.73
2017-09-24T12:36:03.894Z,59.84
2017-09-24T12:38:34.030Z,59.56
2017-09-24T12:41:01.503Z,59.64
2017-09-24T12:43:29.007Z,59.76
2017-09-24T12:45:56.485Z,59.60
2017-09-24T12:48:24.287Z,59.24
2017-09-24T12:50:51.765Z,59.03
2017-09-24T12:53:19.254Z,58.79
2017-09-24T12:55:46.719Z,58.38
2017-09-24T12:58:14.177Z,58.74
2017-09-24T13:00:41.988Z,59.18
2017-09-24T13:03:09.459Z,60.12
2017-09-24T13:05:36.991Z,62.73
2017-09-24T13:08:04.459Z,64.25
2017-09-24T13:10:31.924Z,65.08
2017-09-24T13:12:59.401Z,65.79
2017-09-24T13:15:26.924Z,66.05
2017-09-24T13:17:54.701Z,66.19
2017-09-24T13:20:22.192Z,66.45
2017-09-24T13:22:49.669Z,66.93
2017-09-24T13:25:17.152Z,66.48
2017-09-24T13:27:44.612Z,66.60
2017-09-24T13:30:12.083Z,66.65
2017-09-24T13:32:39.644Z,66.32
2017-09-24T13:35:07.140Z,66.47
2017-09-24T13:37:34.620Z,66.79
2017-09-24T13:40:02.474Z,66.43
2017-09-24T13:42:29.967Z,65.89
2017-09-24T13:44:57.447Z,66.68
2017-09-24T13:47:25.020Z,66.85
2017-09-24T13:49:52.514Z,66.88
2017-09-24T13:52:20.324Z,67.21
2017-09-24T13:54:47.796Z,67.29
2017-09-24T13:57:15.253Z,67.07
2017-09-24T13:59:42.749Z,64.58
2017-09-24T14:02:10.216Z,63.30
2017-09-24T14:04:37.692Z,63.85
2017-09-24T14:07:05.156Z,65.00
2017-09-24T14:09:32.612Z,67.03
2017-09-24T14:12:00.138Z,68.19
2017-09-24T14:14:27.590Z,67.33
2017-09-24T14:16:55.403Z,67.58
2017-09-24T14:19:22.873Z,67.61
2017-09-24T14:21:50.338Z,67.89
2017-09-24T14:24:17.805Z,68.01
2017-09-24T14:26:45.276Z,67.36
2017-09-24T14:29:12.742Z,67.05
2017-09-24T14:31:40.244Z,65.81
2017-09-24T14:34:07.725Z,64.03
2017-09-24T14:36:35.215Z,62.33
2017-09-24T14:39:03.034Z,63.08
2017-09-24T14:41:30.737Z,61.54
2017-09-24T14:43:58.204Z,61.57
2017-09-24T14:46:25.680Z,60.38
2017-09-24T14:48:53.169Z,59.65
2017-09-24T14:51:20.656Z,60.28
2017-09-24T14:53:48.183Z,60.34
2017-09-24T14:56:16.389Z,60.40
2017-09-24T14:58:43.901Z,61.67
2017-09-24T15:01:11.366Z,62.41
2017-09-24T15:03:38.836Z,60.79
2017-09-24T15:06:06.313Z,60.94
2017-09-24T15:08:33.771Z,60.95
2017-09-24T15:11:01.226Z,60.62
2017-09-24T15:13:28.719Z,59.73
2017-09-24T15:15:56.193Z,59.49
2017-09-24T15:18:24.107Z,59.76
2017-09-24T15:20:51.611Z,60.05
2017-09-24T15:23:19.155Z,60.24
2017-09-24T15:25:46.644Z,60.35
2017-09-24T15:28:14.115Z,59.63
2017-09-24T15:30:41.902Z,59.22
2017-09-24T15:33:09.363Z,59.42
2017-09-24T15:35:36.817Z,59.70
2017-09-24T15:38:04.281Z,60.09
2017-09-24T15:40:31.768Z,61.47
2017-09-24T15:42:59.616Z,62.72
2017-09-24T15:45:27.093Z,63.28
2017-09-24T15:47:54.880Z,62.95
2017-09-24T15:50:22.435Z,62.62
2017-09-24T15:52:49.907Z,62.77
2017-09-24T15:55:17.371Z,62.63
2017-09-24T15:57:44.825Z,63.10
2017-09-24T16:00:12.636Z,63.48
2017-09-24T16:02:40.096Z,63.34
2017-09-24T16:05:07.974Z,63.19
2017-09-24T16:07:35.523Z,62.52
2017-09-24T16:10:03.001Z,62.22
2017-09-24T16:12:30.487Z,62.82
2017-09-24T16:14:57.950Z,62.97
2017-09-24T16:17:25.687Z,63.48
2017-09-24T16:19:53.153Z,64.71
2017-09-24T16:22:20.642Z,65.55
2017-09-24T16:24:48.233Z,64.79
2017-09-24T16:27:15.799Z,63.23
2017-09-24T16:29:43.294Z,63.00
2017-09-24T16:32:10.769Z,63.79
2017-09-24T16:34:38.242Z,64.06
2017-09-24T16:37:05.719Z,64.01
2017-09-24T16:39:33.171Z,64.16
2017-09-24T16:42:01.025Z,64.49
2017-09-24T16:44:28.532Z,65.69
2017-09-24T16:46:56.007Z,66.34
2017-09-24T16:49:23.519Z,65.40
2017-09-24T16:51:50.986Z,65.49
2017-09-24T16:54:18.449Z,66.29
2017-09-24T16:56:45.967Z,67.07
2017-09-24T16:59:13.434Z,67.72
2017-09-24T17:01:40.901Z,67.01
2017-09-24T17:04:08.711Z,67.32
2017-09-24T17:06:36.198Z,67.95
2017-09-24T17:09:03.660Z,68.00
2017-09-24T17:11:31.174Z,68.53
2017-09-24T17:13:58.632Z,68.83
2017-09-24T17:16:26.129Z,68.87
2017-09-24T17:18:53.592Z,68.80
2017-09-24T17:21:21.345Z,68.97
2017-09-24T17:23:48.824Z,68.69
2017-09-24T17:26:16.307Z,68.78
2017-09-24T17:28:43.784Z,69.66
2017-09-24T17:31:11.230Z,69.54
2017-09-24T17:33:38.716Z,70.15
2017-09-24T17:36:06.178Z,69.92
2017-09-24T17:38:33.660Z,69.45
2017-09-24T17:41:01.135Z,69.30
2017-09-24T17:43:28.883Z,69.45
2017-09-24T17:45:56.341Z,69.56
2017-09-24T17:48:23.895Z,70.01
2017-09-24T17:50:52.088Z,70.62
2017-09-24T17:53:19.577Z,70.85
2017-09-24T17:55:47.044Z,70.86
2017-09-24T17:58:14.531Z,71.03
2017-09-24T18:00:42.114Z,71.31
2017-09-24T18:03:09.573Z,70.96
2017-09-24T18:05:37.437Z,71.20
2017-09-24T18:08:04.919Z,71.05
2017-09-24T18:10:32.371Z,71.35
2017-09-24T18:12:59.871Z,71.36
2017-09-24T18:15:27.362Z,71.68
2017-09-24T18:17:55.441Z,71.97
2017-09-24T18:20:22.915Z,72.25
2017-09-24T18:22:50.451Z,72.42
2017-09-24T18:25:17.943Z,72.44
2017-09-24T18:27:45.420Z,72.48
2017-09-24T18:30:12.930Z,72.47
2017-09-24T18:32:40.779Z,72.96
2017-09-24T18:35:08.236Z,73.02
2017-09-24T18:37:35.725Z,73.42
2017-09-24T18:40:03.379Z,73.65
2017-09-24T18:42:30.844Z,73.98
2017-09-24T18:44:58.323Z,73.97
2017-09-24T18:47:25.787Z,74.07
2017-09-24T18:49:53.254Z,74.34
2017-09-24T18:52:20.747Z,74.21
2017-09-24T18:54:48.228Z,74.47
2017-09-24T18:57:16.479Z,74.62
2017-09-24T18:59:46.227Z,74.91
2017-09-24T19:02:13.759Z,74.80
2017-09-24T19:04:41.223Z,74.76
2017-09-24T19:07:08.706Z,74.42
2017-09-24T19:09:36.182Z,74.46
2017-09-24T19:12:03.677Z,74.89
2017-09-24T19:14:31.167Z,75.02
2017-09-24T19:16:58.666Z,74.97
2017-09-24T19:19:26.150Z,74.48
2017-09-24T19:21:53.613Z,74.53
2017-09-24T19:24:21.119Z,74.59
2017-09-24T19:26:48.634Z,74.34
2017-09-24T19:29:16.103Z,73.90
2017-09-24T19:31:43.577Z,73.76
2017-09-24T19:34:11.410Z,73.99
2017-09-24T19:36:38.978Z,74.52
2017-09-24T19:39:06.434Z,74.56
2017-09-24T19:41:33.940Z,74.44
2017-09-24T19:44:01.407Z,74.33
2017-09-24T19:46:28.890Z,74.59
2017-09-24T19:48:56.363Z,74.86
2017-09-24T19:51:24.149Z,75.07
2017-09-24T19:53:51.639Z,75.17
2017-09-24T19:56:19.120Z,75.32
2017-09-24T19:58:46.641Z,75.40
2017-09-24T20:01:14.154Z,75.85
2017-09-24T20:03:41.649Z,76.00
2017-09-24T20:06:09.200Z,76.25
2017-09-24T20:08:36.695Z,76.42
2017-09-24T20:11:04.179Z,76.54
2017-09-24T20:13:31.662Z,76.65
2017-09-24T20:15:59.152Z,76.77
2017-09-24T20:18:26.992Z,77.01
2017-09-24T20:20:54.483Z,77.43
2017-09-24T20:23:21.967Z,77.65
2017-09-24T20:25:49.474Z,77.63
2017-09-24T20:28:16.971Z,77.65
2017-09-24T20:30:44.495Z,78.08
2017-09-24T20:33:11.992Z,78.28
2017-09-24T20:35:39.578Z,78.21
2017-09-24T20:38:07.059Z,78.42
2017-09-24T20:40:34.552Z,78.57
2017-09-24T20:43:02.050Z,78.76
2017-09-24T20:45:29.533Z,79.02
2017-09-24T20:47:57.008Z,79.36
2017-09-24T20:50:24.821Z,79.51
2017-09-24T20:52:52.288Z,79.42
2017-09-24T20:55:19.765Z,79.57
2017-09-24T20:57:47.242Z,79.89
2017-09-24T21:00:14.986Z,80.32
2017-09-24T21:02:42.583Z,80.50
2017-09-24T21:05:10.079Z,81.26
2017-09-24T21:07:37.846Z,81.39
2017-09-24T21:10:05.311Z,81.58
2017-09-24T21:12:32.795Z,81.32
2017-09-24T21:15:00.278Z,81.21
2017-09-24T21:17:27.808Z,81.12
2017-09-24T21:19:55.305Z,81.12
2017-09-24T21:22:22.763Z,81.11
2017-09-24T21:24:50.238Z,81.14
2017-09-24T21:27:17.758Z,81.18
2017-09-24T21:29:45.242Z,81.23
2017-09-24T21:32:12.730Z,81.30
2017-09-24T21:34:40.500Z,81.41
2017-09-24T21:37:08.063Z,81.49
2017-09-24T21:39:35.611Z,81.63
2017-09-24T21:42:03.097Z,81.65
2017-09-24T21:44:30.573Z,81.81
2017-09-24T21:46:58.392Z,81.88
2017-09-24T21:49:25.876Z,81.86
2017-09-24T21:51:53.343Z,81.95
2017-09-24T21:54:20.813Z,82.09
2017-09-24T21:56:48.275Z,82.00
2017-09-24T21:59:15.790Z,81.96
2017-09-24T22:01:43.257Z,82.10
2017-09-24T22:04:11.614Z,82.08
2017-09-24T22:06:39.082Z,82.24
2017-09-24T22:09:06.852Z,82.34
2017-09-24T22:11:34.392Z,82.46
2017-09-24T22:14:01.955Z,82.56
2017-09-24T22:16:29.441Z,83.41
2017-09-24T22:18:56.929Z,83.46
2017-09-24T22:21:24.406Z,83.37
2017-09-24T22:23:51.863Z,83.34
2017-09-24T22:26:19.335Z,83.20
2017-09-24T22:28:46.799Z,82.89
2017-09-24T22:31:14.365Z,82.65
2017-09-24T22:33:41.845Z,82.58
2017-09-24T22:36:09.684Z,82.56
2017-09-24T22:38:37.173Z,82.57
2017-09-24T22:41:04.651Z,82.67
2017-09-24T22:43:32.161Z,82.69
2017-09-24T22:45:59.646Z,82.80
2017-09-24T22:48:27.138Z,82.95
2017-09-24T22:50:54.651Z,82.81
2017-09-24T22:53:22.492Z,82.69
2017-09-24T22:55:49.963Z,82.81
2017-09-24T22:58:17.423Z,83.02
2017-09-24T23:00:44.921Z,83.00
2017-09-24T23:03:12.401Z,82.82
2017-09-24T23:05:39.882Z,82.54
2017-09-24T23:08:07.348Z,82.39
2017-09-24T23:10:34.822Z,82.18
2017-09-24T23:13:02.293Z,82.06
2017-09-24T23:15:30.118Z,82.09
2017-09-24T23:17:57.594Z,82.20
2017-09-24T23:20:25.059Z,82.26
2017-09-24T23:22:52.560Z,82.31
2017-09-24T23:25:20.041Z,82.44
2017-09-24T23:27:47.515Z,82.70
2017-09-24T23:30:14.973Z,82.86
2017-09-24T23:32:42.728Z,82.94
2017-09-24T23:35:10.217Z,82.97
2017-09-24T23:37:37.689Z,82.95
2017-09-24T23:40:05.183Z,82.93
2017-09-24T23:42:32.708Z,82.98
2017-09-24T23:45:00.231Z,82.91
2017-09-24T23:47:27.700Z,82.97
2017-09-24T23:49:55.547Z,83.09
2017-09-24T23:52:23.100Z,83.21
2017-09-24T23:54:50.568Z,83.33
2017-09-24T23:57:18.045Z,83.46
2017-09-24T23:59:45.583Z,83.55
